createdAt,value
2018-07-20T00:00:12.452Z,95.70
2018-07-20T00:02:41.332Z,95.50
2018-07-20T00:05:09.982Z,95.50
2018-07-20T00:07:38.914Z,95.30
2018-07-20T00:10:07.681Z,95.70
2018-07-20T00:12:36.694Z,95.70
2018-07-20T00:15:05.694Z,95.70
2018-07-20T00:17:34.557Z,95.70
2018-07-20T00:20:03.416Z,96.00
2018-07-20T00:25:01.713Z,95.80
2018-07-20T00:27:30.557Z,95.80
2018-07-20T00:29:59.383Z,95.90
2018-07-20T00:32:28.586Z,95.80
2018-07-20T00:34:57.940Z,96.00
2018-07-20T00:37:26.539Z,95.90
2018-07-20T00:39:55.224Z,96.00
2018-07-20T00:42:24.074Z,96.20
2018-07-20T00:44:52.681Z,96.10
2018-07-20T00:47:21.956Z,95.60
2018-07-20T00:49:50.320Z,96.00
2018-07-20T00:52:19.972Z,96.00
2018-07-20T00:54:48.564Z,95.70
2018-07-20T00:57:17.452Z,95.50
2018-07-20T00:59:46.137Z,95.70
2018-07-20T01:02:14.917Z,95.90
2018-07-20T01:04:43.794Z,95.60
2018-07-20T01:07:12.707Z,96.20
2018-07-20T01:09:41.441Z,95.60
2018-07-20T01:12:10.388Z,96.10
2018-07-20T01:14:39.576Z,96.20
2018-07-20T01:17:08.549Z,96.40
2018-07-20T01:19:37.229Z,96.40
2018-07-20T01:22:05.949Z,96.10
2018-07-20T01:24:34.653Z,95.80
2018-07-20T01:27:03.312Z,96.20
2018-07-20T01:29:32.497Z,95.90
2018-07-20T01:32:01.289Z,96.40
2018-07-20T01:34:29.986Z,96.50
2018-07-20T01:36:58.878Z,96.80
2018-07-20T01:39:27.931Z,97.00
2018-07-20T01:41:57.293Z,96.60
2018-07-20T01:44:27.204Z,96.60
2018-07-20T01:46:56.369Z,96.90
2018-07-20T01:49:25.597Z,96.80
2018-07-20T01:51:54.085Z,96.60
2018-07-20T01:54:23.676Z,96.90
2018-07-20T01:56:52.625Z,96.80
2018-07-20T01:59:21.627Z,96.40
2018-07-20T02:01:50.259Z,96.80
2018-07-20T02:04:18.880Z,96.60
2018-07-20T02:06:47.463Z,97.10
2018-07-20T02:09:20.436Z,97.00
2018-07-20T02:11:49.143Z,97.00
2018-07-20T02:14:17.833Z,97.00
2018-07-20T02:16:46.619Z,97.00
2018-07-20T02:19:15.439Z,97.10
2018-07-20T02:21:44.686Z,97.20
2018-07-20T02:24:13.972Z,97.00
2018-07-20T02:26:43.152Z,97.20
2018-07-20T02:29:11.540Z,97.10
2018-07-20T02:31:40.314Z,97.10
2018-07-20T02:34:10.355Z,97.20
2018-07-20T02:36:38.882Z,97.30
2018-07-20T02:39:09.520Z,97.30
2018-07-20T02:41:38.600Z,97.30
2018-07-20T02:44:07.497Z,97.30
2018-07-20T02:46:37.421Z,97.20
2018-07-20T02:49:06.330Z,97.20
2018-07-20T02:51:34.980Z,96.90
2018-07-20T02:54:04.007Z,96.90
2018-07-20T02:59:02.488Z,96.70
2018-07-20T03:01:31.262Z,96.90
2018-07-20T03:03:59.980Z,96.80
2018-07-20T03:06:28.667Z,96.80
2018-07-20T03:08:57.364Z,96.70
2018-07-20T03:13:54.846Z,96.80
2018-07-20T03:16:23.938Z,97.10
2018-07-20T03:18:52.420Z,96.90
2018-07-20T03:21:21.155Z,97.00
2018-07-20T03:23:49.984Z,96.90
2018-07-20T03:26:18.632Z,96.70
2018-07-20T03:28:47.268Z,96.90
2018-07-20T03:31:17.540Z,96.80
2018-07-20T03:33:46.660Z,96.90
2018-07-20T03:36:15.255Z,96.90
2018-07-20T03:38:44.087Z,97.00
2018-07-20T03:41:12.844Z,97.00
2018-07-20T03:43:41.572Z,97.00
2018-07-20T03:46:11.299Z,97.20
2018-07-20T03:48:43.107Z,96.80
2018-07-20T03:51:13.035Z,97.00
2018-07-20T03:53:41.812Z,97.10
2018-07-20T03:56:10.544Z,97.20
2018-07-20T03:58:42.366Z,97.30
2018-07-20T04:01:11.888Z,97.30
2018-07-20T04:03:40.557Z,97.20
2018-07-20T04:06:09.243Z,97.50
2018-07-20T04:08:38.100Z,97.10
2018-07-20T04:11:06.567Z,97.40
2018-07-20T04:13:38.548Z,97.40
2018-07-20T04:16:07.313Z,97.40
2018-07-20T04:18:38.949Z,97.30
2018-07-20T04:21:07.566Z,97.50
2018-07-20T04:23:39.352Z,97.70
2018-07-20T04:26:11.217Z,97.20
2018-07-20T04:31:15.165Z,97.60
2018-07-20T04:33:44.444Z,98.00
2018-07-20T04:36:14.330Z,98.00
2018-07-20T04:38:43.026Z,98.00
2018-07-20T04:41:29.910Z,97.70
2018-07-20T04:43:58.374Z,97.40
2018-07-20T04:46:26.928Z,97.90
2018-07-20T04:48:55.675Z,97.60
2018-07-20T04:51:24.333Z,98.00
2018-07-20T04:53:52.992Z,98.00
2018-07-20T04:56:24.572Z,97.80
2018-07-20T04:58:54.355Z,97.80
2018-07-20T05:01:23.118Z,98.20
2018-07-20T05:03:51.792Z,98.00
2018-07-20T05:08:49.967Z,98.40
2018-07-20T05:11:18.879Z,97.90
2018-07-20T05:13:47.866Z,98.10
2018-07-20T05:16:16.388Z,98.10
2018-07-20T05:18:45.299Z,97.80
2018-07-20T05:21:15.033Z,98.20
2018-07-20T05:23:44.884Z,98.00
2018-07-20T05:26:13.797Z,98.10
2018-07-20T05:28:42.552Z,98.00
2018-07-20T05:31:11.374Z,98.20
2018-07-20T05:33:41.374Z,98.30
2018-07-20T05:36:10.066Z,98.20
2018-07-20T05:38:38.849Z,98.10
2018-07-20T05:41:08.130Z,98.10
2018-07-20T05:43:36.533Z,98.30
2018-07-20T05:46:08.239Z,98.30
2018-07-20T05:48:40.046Z,98.20
2018-07-20T05:51:09.764Z,98.20
2018-07-20T05:53:39.725Z,98.20
2018-07-20T05:56:08.573Z,98.20
2018-07-20T05:58:37.153Z,97.60
2018-07-20T06:01:05.929Z,97.20
2018-07-20T06:03:35.442Z,97.20
2018-07-20T06:06:04.025Z,96.60
2018-07-20T06:08:33.755Z,96.10
2018-07-20T06:11:05.879Z,95.70
2018-07-20T06:13:37.822Z,95.30
2018-07-20T06:16:06.485Z,94.50
2018-07-20T06:18:35.387Z,94.20
2018-07-20T06:21:03.929Z,93.80
2018-07-20T06:23:38.219Z,93.20
2018-07-20T06:26:09.864Z,93.20
2018-07-20T06:28:52.354Z,92.20
2018-07-20T06:31:21.309Z,92.30
2018-07-20T06:33:50.284Z,91.60
2018-07-20T06:36:19.384Z,91.70
2018-07-20T06:38:48.246Z,91.20
2018-07-20T06:41:18.194Z,90.80
2018-07-20T06:43:47.840Z,90.00
2018-07-20T06:46:16.669Z,89.80
2018-07-20T06:48:46.260Z,90.50
2018-07-20T06:51:16.009Z,90.30
2018-07-20T06:53:47.593Z,89.50
2018-07-20T06:56:16.391Z,86.70
2018-07-20T06:58:45.072Z,86.70
2018-07-20T07:01:13.936Z,86.40
2018-07-20T07:03:43.634Z,86.30
2018-07-20T07:06:12.399Z,85.70
2018-07-20T07:08:42.397Z,86.10
2018-07-20T07:11:10.953Z,84.90
2018-07-20T07:13:39.766Z,83.80
2018-07-20T07:16:08.547Z,82.90
2018-07-20T07:18:38.121Z,82.40
2018-07-20T07:21:07.847Z,82.80
2018-07-20T07:23:36.560Z,82.10
2018-07-20T07:26:06.266Z,81.70
2018-07-20T07:28:39.011Z,80.50
2018-07-20T07:31:07.941Z,79.50
2018-07-20T07:33:36.730Z,79.60
2018-07-20T07:36:05.437Z,78.60
2018-07-20T07:38:34.169Z,77.30
2018-07-20T07:41:02.843Z,76.10
2018-07-20T07:43:31.532Z,75.60
2018-07-20T07:46:00.170Z,75.30
2018-07-20T07:48:28.747Z,75.60
2018-07-20T07:50:57.635Z,76.10
2018-07-20T07:53:26.428Z,75.30
2018-07-20T07:55:55.236Z,73.80
2018-07-20T07:58:24.198Z,73.80
2018-07-20T08:00:52.795Z,72.40
2018-07-20T08:03:21.398Z,72.20
2018-07-20T08:05:50.109Z,70.90
2018-07-20T08:08:18.680Z,69.80
2018-07-20T08:10:47.509Z,70.60
2018-07-20T08:13:17.535Z,70.90
2018-07-20T08:15:46.156Z,67.20
2018-07-20T08:18:14.829Z,65.60
2018-07-20T08:20:44.557Z,65.90
2018-07-20T08:23:14.698Z,63.40
2018-07-20T08:25:43.271Z,63.90
2018-07-20T08:28:12.637Z,65.30
2018-07-20T08:30:41.895Z,65.60
2018-07-20T08:33:10.890Z,64.70
2018-07-20T08:35:39.347Z,66.20
2018-07-20T08:38:11.094Z,65.50
2018-07-20T08:40:40.777Z,63.20
2018-07-20T08:43:12.624Z,63.70
2018-07-20T08:45:44.412Z,64.10
2018-07-20T08:48:13.122Z,64.30
2018-07-20T08:50:43.848Z,62.60
2018-07-20T08:53:12.525Z,60.20
2018-07-20T08:55:41.404Z,62.20
2018-07-20T08:58:10.220Z,61.10
2018-07-20T09:00:38.975Z,59.10
2018-07-20T09:03:10.633Z,61.20
2018-07-20T09:05:39.353Z,58.50
2018-07-20T09:08:08.962Z,58.80
2018-07-20T09:10:43.021Z,57.50
2018-07-20T09:13:12.277Z,58.40
2018-07-20T09:15:41.002Z,57.80
2018-07-20T09:18:09.858Z,57.20
2018-07-20T09:20:38.571Z,58.70
2018-07-20T09:23:07.236Z,57.20
2018-07-20T09:25:35.953Z,56.90
2018-07-20T09:28:05.814Z,56.90
2018-07-20T09:30:34.397Z,56.60
2018-07-20T09:33:03.360Z,56.10
2018-07-20T09:35:32.537Z,56.80
2018-07-20T09:38:01.751Z,56.60
2018-07-20T09:40:30.349Z,55.50
2018-07-20T09:42:59.065Z,54.50
2018-07-20T09:45:27.754Z,54.60
2018-07-20T09:47:56.540Z,55.40
2018-07-20T09:50:26.171Z,54.80
2018-07-20T09:52:54.860Z,55.40
2018-07-20T09:55:23.564Z,54.20
2018-07-20T09:57:52.309Z,52.90
2018-07-20T10:00:26.696Z,51.80
2018-07-20T10:02:55.908Z,51.60
2018-07-20T10:05:24.505Z,50.20
2018-07-20T10:07:53.506Z,50.00
2018-07-20T10:10:22.184Z,52.00
2018-07-20T10:12:51.917Z,51.70
2018-07-20T10:15:24.017Z,52.50
2018-07-20T10:17:53.266Z,50.00
2018-07-20T10:20:22.073Z,50.50
2018-07-20T10:22:51.124Z,51.30
2018-07-20T10:25:19.699Z,51.40
2018-07-20T10:27:48.395Z,51.50
2018-07-20T10:30:18.009Z,51.30
2018-07-20T10:32:46.984Z,50.70
2018-07-20T10:35:18.559Z,50.30
2018-07-20T10:37:47.362Z,51.20
2018-07-20T10:42:46.692Z,49.50
2018-07-20T10:45:15.558Z,49.70
2018-07-20T10:47:45.557Z,49.50
2018-07-20T10:50:14.028Z,49.10
2018-07-20T10:52:42.712Z,47.80
2018-07-20T10:55:17.218Z,49.50
2018-07-20T10:57:46.117Z,48.90
2018-07-20T11:00:14.711Z,48.50
2018-07-20T11:02:46.915Z,47.50
2018-07-20T11:05:16.329Z,47.00
2018-07-20T11:07:45.797Z,45.80
2018-07-20T11:10:14.505Z,46.20
2018-07-20T11:12:52.800Z,47.00
2018-07-20T11:15:21.975Z,45.80
2018-07-20T11:17:53.773Z,43.70
2018-07-20T11:20:22.604Z,43.90
2018-07-20T11:25:22.240Z,44.80
2018-07-20T11:27:51.013Z,44.10
2018-07-20T11:30:20.134Z,42.70
2018-07-20T11:32:48.841Z,42.30
2018-07-20T11:35:17.950Z,41.60
2018-07-20T11:37:46.584Z,42.70
2018-07-20T11:40:16.329Z,41.50
2018-07-20T11:42:45.133Z,41.10
2018-07-20T11:45:13.820Z,39.20
2018-07-20T11:47:43.754Z,40.20
2018-07-20T11:50:13.471Z,41.10
2018-07-20T11:52:42.534Z,41.50
2018-07-20T11:55:11.139Z,40.60
2018-07-20T11:57:42.963Z,40.10
2018-07-20T12:00:11.821Z,39.10
2018-07-20T12:05:12.132Z,40.70
2018-07-20T12:07:41.077Z,40.30
2018-07-20T12:10:09.857Z,39.50
2018-07-20T12:12:46.057Z,40.00
2018-07-20T12:15:16.177Z,39.30
2018-07-20T12:17:47.447Z,38.80
2018-07-20T12:20:15.820Z,39.20
2018-07-20T12:22:45.456Z,39.80
2018-07-20T12:25:14.254Z,39.90
2018-07-20T12:27:45.937Z,38.80
2018-07-20T12:30:15.683Z,40.00
2018-07-20T12:32:44.606Z,40.50
2018-07-20T12:35:13.025Z,40.40
2018-07-20T12:37:42.117Z,40.80
2018-07-20T12:40:11.044Z,39.90
2018-07-20T12:42:39.273Z,40.10
2018-07-20T12:45:11.249Z,41.00
2018-07-20T12:47:40.064Z,40.70
2018-07-20T12:50:08.749Z,40.60
2018-07-20T12:52:38.021Z,42.10
2018-07-20T12:55:07.092Z,41.60
2018-07-20T12:57:36.233Z,40.40
2018-07-20T13:00:05.449Z,42.40
2018-07-20T13:02:34.221Z,42.30
2018-07-20T13:05:03.153Z,42.00
2018-07-20T13:07:31.977Z,43.50
2018-07-20T13:11:33.935Z,42.60
2018-07-20T13:14:02.469Z,43.70
2018-07-20T13:16:31.030Z,43.10
2018-07-20T13:19:01.013Z,42.30
2018-07-20T13:21:30.115Z,40.70
2018-07-20T13:23:59.050Z,40.60
2018-07-20T13:26:28.033Z,40.60
2018-07-20T13:28:56.808Z,40.10
2018-07-20T13:31:25.752Z,39.30
2018-07-20T13:33:54.553Z,39.70
2018-07-20T13:36:23.276Z,39.80
2018-07-20T13:38:52.049Z,39.30
2018-07-20T13:41:21.345Z,38.20
2018-07-20T13:43:50.337Z,38.90
2018-07-20T13:46:19.614Z,39.30
2018-07-20T13:48:48.454Z,40.20
2018-07-20T13:51:17.338Z,40.30
2018-07-20T13:53:46.349Z,40.70
2018-07-20T13:56:14.897Z,41.40
2018-07-20T13:58:43.680Z,38.90
2018-07-20T14:01:12.401Z,41.10
2018-07-20T14:03:41.315Z,40.40
2018-07-20T14:06:09.817Z,40.10
2018-07-20T14:08:38.583Z,43.00
2018-07-20T14:11:07.305Z,44.10
2018-07-20T14:13:36.067Z,44.20
2018-07-20T14:16:04.967Z,44.40
2018-07-20T14:18:33.454Z,44.90
2018-07-20T14:21:02.699Z,46.20
2018-07-20T14:23:31.573Z,46.00
2018-07-20T14:26:01.543Z,46.60
2018-07-20T14:28:30.518Z,47.10
2018-07-20T14:30:59.315Z,47.00
2018-07-20T14:33:29.246Z,47.10
2018-07-20T14:36:01.118Z,46.50
2018-07-20T14:38:30.072Z,45.70
2018-07-20T14:40:59.694Z,45.30
2018-07-20T14:43:28.781Z,45.40
2018-07-20T14:45:57.707Z,45.10
2018-07-20T14:48:27.738Z,45.00
2018-07-20T14:50:56.710Z,45.60
2018-07-20T14:53:25.760Z,44.70
2018-07-20T14:55:54.390Z,45.20
2018-07-20T14:58:23.368Z,44.20
2018-07-20T15:00:52.240Z,45.20
2018-07-20T15:03:21.141Z,45.00
2018-07-20T15:05:50.238Z,45.00
2018-07-20T15:08:19.058Z,44.90
2018-07-20T15:10:50.397Z,45.50
2018-07-20T15:13:20.312Z,46.80
2018-07-20T15:18:18.820Z,46.40
2018-07-20T15:20:47.882Z,47.00
2018-07-20T15:23:17.098Z,47.90
2018-07-20T15:25:46.404Z,48.10
2018-07-20T15:28:15.206Z,48.50
2018-07-20T15:30:44.130Z,49.70
2018-07-20T15:33:13.036Z,49.70
2018-07-20T15:35:42.073Z,49.60
2018-07-20T15:38:10.687Z,49.50
2018-07-20T15:40:39.653Z,50.10
2018-07-20T15:43:09.010Z,50.10
2018-07-20T15:45:37.384Z,50.00
2018-07-20T15:48:06.430Z,50.70
2018-07-20T15:50:36.307Z,51.70
2018-07-20T15:55:36.704Z,53.70
2018-07-20T16:00:34.200Z,54.10
2018-07-20T16:03:03.196Z,54.00
2018-07-20T16:05:32.009Z,54.30
2018-07-20T16:08:00.928Z,54.30
2018-07-20T16:10:29.855Z,54.60
2018-07-20T16:12:58.581Z,55.50
2018-07-20T16:15:27.285Z,55.60
2018-07-20T16:17:57.519Z,55.50
2018-07-20T16:22:57.717Z,56.10
2018-07-20T16:25:26.518Z,55.80
2018-07-20T16:27:55.560Z,56.40
2018-07-20T16:30:27.164Z,55.70
2018-07-20T16:32:58.793Z,55.40
2018-07-20T16:35:28.008Z,56.10
2018-07-20T16:37:56.428Z,56.30
2018-07-20T16:40:25.935Z,55.80
2018-07-20T16:42:55.135Z,56.40
2018-07-20T16:45:29.956Z,57.00
2018-07-20T16:47:58.968Z,57.10
2018-07-20T16:50:28.024Z,56.90
2018-07-20T16:52:56.614Z,56.90
2018-07-20T16:55:25.493Z,57.00
2018-07-20T16:57:54.411Z,56.50
2018-07-20T17:00:23.354Z,55.90
2018-07-20T17:02:52.280Z,56.60
2018-07-20T17:05:21.307Z,57.70
2018-07-20T17:07:50.217Z,59.20
2018-07-20T17:10:20.160Z,58.30
2018-07-20T17:12:48.541Z,57.70
2018-07-20T17:15:17.432Z,58.00
2018-07-20T17:17:46.073Z,57.80
2018-07-20T17:20:14.943Z,58.30
2018-07-20T17:22:44.534Z,58.30
2018-07-20T17:25:13.583Z,57.70
2018-07-20T17:27:42.606Z,57.70
2018-07-20T17:30:11.733Z,58.20
2018-07-20T17:32:43.511Z,58.70
2018-07-20T17:35:19.447Z,58.40
2018-07-20T17:40:16.776Z,59.20
2018-07-20T17:42:45.176Z,58.50
2018-07-20T17:45:14.109Z,59.80
2018-07-20T17:47:46.125Z,60.30
2018-07-20T17:50:14.615Z,59.50
2018-07-20T17:52:43.486Z,59.40
2018-07-20T17:55:12.437Z,60.80
2018-07-20T17:57:42.246Z,59.80
2018-07-20T18:00:11.511Z,59.50
2018-07-20T18:02:41.182Z,59.60
2018-07-20T18:05:09.689Z,58.60
2018-07-20T18:07:39.121Z,59.30
2018-07-20T18:10:08.214Z,59.60
2018-07-20T18:12:37.026Z,60.00
2018-07-20T18:15:07.688Z,59.80
2018-07-20T18:17:37.552Z,60.50
2018-07-20T18:20:06.354Z,60.50
2018-07-20T18:22:35.196Z,61.40
2018-07-20T18:25:07.224Z,62.10
2018-07-20T18:27:36.918Z,62.10
2018-07-20T18:30:06.065Z,63.40
2018-07-20T18:32:36.288Z,64.70
2018-07-20T18:35:05.377Z,64.70
2018-07-20T18:37:34.630Z,65.00
2018-07-20T18:40:03.624Z,65.40
2018-07-20T18:42:32.004Z,64.50
2018-07-20T18:45:01.151Z,64.50
2018-07-20T18:47:32.393Z,64.10
2018-07-20T18:50:01.816Z,64.40
2018-07-20T18:52:32.333Z,65.00
2018-07-20T18:55:02.250Z,65.90
2018-07-20T18:57:33.848Z,65.60
2018-07-20T19:00:03.524Z,65.80
2018-07-20T19:05:02.838Z,66.60
2018-07-20T19:07:31.620Z,66.80
2018-07-20T19:10:01.932Z,67.30
2018-07-20T19:12:31.560Z,67.70
2018-07-20T19:20:05.576Z,68.00
2018-07-20T19:22:35.255Z,68.00
2018-07-20T19:25:05.114Z,68.10
2018-07-20T19:27:40.246Z,68.60
2018-07-20T19:30:16.599Z,68.70
2018-07-20T19:32:48.688Z,69.40
2018-07-20T19:35:18.068Z,69.50
2018-07-20T19:37:48.364Z,69.90
2018-07-20T19:40:18.743Z,70.40
2018-07-20T19:42:51.345Z,71.10
2018-07-20T19:45:21.184Z,71.40
2018-07-20T19:47:56.012Z,71.90
2018-07-20T19:50:30.780Z,72.20
2018-07-20T19:52:59.952Z,72.50
2018-07-20T19:55:30.620Z,73.10
2018-07-20T19:58:02.557Z,72.70
2018-07-20T20:00:32.348Z,73.50
2018-07-20T20:03:08.551Z,73.80
2018-07-20T20:05:41.451Z,74.30
2018-07-20T20:08:12.957Z,74.60
2018-07-20T20:10:43.133Z,74.80
2018-07-20T20:13:14.142Z,74.40
2018-07-20T20:15:48.709Z,74.80
2018-07-20T20:20:52.917Z,75.90
2018-07-20T20:23:21.794Z,76.50
2018-07-20T20:25:51.842Z,76.50
2018-07-20T20:28:26.372Z,76.50
2018-07-20T20:30:57.846Z,76.80
2018-07-20T20:33:29.236Z,77.30
2018-07-20T20:35:58.629Z,77.60
2018-07-20T20:38:30.777Z,77.90
2018-07-20T20:43:30.622Z,79.40
2018-07-20T20:45:59.341Z,79.70
2018-07-20T20:48:28.492Z,79.90
2018-07-20T20:53:27.867Z,80.00
2018-07-20T20:55:56.234Z,80.00
2018-07-20T20:58:26.209Z,80.20
2018-07-20T21:00:57.794Z,80.20
2018-07-20T21:03:26.782Z,80.00
2018-07-20T21:05:55.525Z,79.90
2018-07-20T21:08:24.820Z,80.50
2018-07-20T21:10:53.896Z,80.20
2018-07-20T21:13:22.750Z,80.50
2018-07-20T21:15:51.712Z,80.60
2018-07-20T21:18:30.074Z,81.20
2018-07-20T21:21:04.029Z,81.40
2018-07-20T21:23:32.432Z,81.70
2018-07-20T21:26:01.006Z,81.80
2018-07-20T21:28:30.601Z,82.00
2018-07-20T21:30:59.329Z,83.30
2018-07-20T21:33:33.557Z,81.80
2018-07-20T21:36:01.834Z,82.30
2018-07-20T21:38:36.278Z,82.00
2018-07-20T21:43:46.393Z,81.90
2018-07-20T21:46:15.175Z,82.10
2018-07-20T21:48:43.848Z,82.10
2018-07-20T21:51:13.640Z,82.10
2018-07-20T21:53:43.381Z,82.30
2018-07-20T21:56:13.170Z,82.60
2018-07-20T21:58:44.829Z,83.00
2018-07-20T22:01:14.007Z,84.20
2018-07-20T22:03:50.421Z,83.80
2018-07-20T22:06:35.787Z,84.50
2018-07-20T22:09:07.358Z,84.30
2018-07-20T22:14:28.641Z,83.90
2018-07-20T22:16:57.995Z,84.40
2018-07-20T22:19:26.602Z,84.10
2018-07-20T22:21:55.902Z,84.00
2018-07-20T22:24:34.228Z,84.00
2018-07-20T22:27:03.073Z,85.50
2018-07-20T22:29:33.008Z,85.90
2018-07-20T22:32:07.619Z,85.10
2018-07-20T22:34:36.816Z,85.10
2018-07-20T22:37:08.865Z,85.50
2018-07-20T22:39:38.836Z,85.50
2018-07-20T22:42:07.891Z,85.60
2018-07-20T22:44:42.574Z,86.20
2018-07-20T22:47:12.000Z,86.70
2018-07-20T22:49:43.324Z,86.40
2018-07-20T22:52:30.571Z,86.40
2018-07-20T22:54:59.970Z,86.80
2018-07-20T22:57:28.541Z,87.50
2018-07-20T22:59:57.776Z,87.40
2018-07-20T23:02:47.837Z,87.90
2018-07-20T23:05:16.296Z,88.50
2018-07-20T23:07:45.190Z,88.60
2018-07-20T23:10:23.955Z,89.60
2018-07-20T23:12:53.409Z,88.60
2018-07-20T23:15:21.954Z,89.10
2018-07-20T23:17:51.816Z,89.10
2018-07-20T23:20:21.484Z,89.60
2018-07-20T23:22:50.745Z,90.10
2018-07-20T23:25:19.454Z,90.00
2018-07-20T23:30:18.254Z,90.10
2018-07-20T23:32:58.495Z,90.60
2018-07-20T23:35:32.944Z,90.40
2018-07-20T23:38:07.719Z,90.60
2018-07-20T23:40:42.725Z,90.60
2018-07-20T23:43:13.924Z,90.60
2018-07-20T23:45:42.957Z,91.00
2018-07-20T23:48:26.654Z,91.00
2018-07-20T23:50:55.588Z,91.20
2018-07-20T23:53:29.705Z,90.70
2018-07-20T23:55:58.918Z,90.70
2018-07-20T23:58:33.090Z,90.80
